sensor_id;sensor_type;location;lat;lon;timestamp;pressure;altitude;pressure_sealevel;temperature;humidity
70411;BME280;57832;46.038;11.398;2022-12-07T16:34:23;96472.50;;;-0.64;100.00
70411;BME280;57832;46.038;11.398;2022-12-07T16:36:48;96479.72;;;-0.75;100.00
70411;BME280;57832;46.038;11.398;2022-12-07T16:39:13;96484.16;;;-0.47;100.00
70411;BME280;57832;46.038;11.398;2022-12-07T16:41:39;96485.69;;;-0.53;100.00
70411;BME280;57832;46.038;11.398;2022-12-07T16:44:05;96483.78;;;-0.65;100.00
70411;BME280;57832;46.038;11.398;2022-12-07T16:46:31;96482.91;;;-0.73;100.00
70411;BME280;57832;46.038;11.398;2022-12-07T16:48:57;96494.66;;;-0.85;100.00
70411;BME280;57832;46.038;11.398;2022-12-07T16:51:22;96497.84;;;-0.83;100.00
70411;BME280;57832;46.038;11.398;2022-12-07T16:53:48;96497.50;;;-0.80;100.00
70411;BME280;57832;46.038;11.398;2022-12-07T16:56:14;96501.75;;;-0.87;100.00
70411;BME280;57832;46.038;11.398;2022-12-07T16:58:42;96498.44;;;-1.03;100.00
70411;BME280;57832;46.038;11.398;2022-12-07T17:01:09;96506.06;;;-0.94;100.00
70411;BME280;57832;46.038;11.398;2022-12-07T17:03:35;96510.56;;;-0.96;100.00
70411;BME280;57832;46.038;11.398;2022-12-07T17:06:00;96512.38;;;-1.12;100.00
70411;BME280;57832;46.038;11.398;2022-12-07T17:08:26;96515.44;;;-1.02;100.00
70411;BME280;57832;46.038;11.398;2022-12-07T17:10:51;96515.00;;;-1.20;100.00
70411;BME280;57832;46.038;11.398;2022-12-07T17:13:17;96512.53;;;-1.28;100.00
70411;BME280;57832;46.038;11.398;2022-12-07T17:16:02;96515.75;;;-1.26;100.00
70411;BME280;57832;46.038;11.398;2022-12-07T17:18:34;96516.97;;;-1.22;100.00
70411;BME280;57832;46.038;11.398;2022-12-07T17:21:04;96521.31;;;-0.93;100.00
70411;BME280;57832;46.038;11.398;2022-12-07T17:23:31;96519.81;;;-1.17;100.00
70411;BME280;57832;46.038;11.398;2022-12-07T17:26:07;96526.91;;;-1.34;100.00
70411;BME280;57832;46.038;11.398;2022-12-07T17:28:37;96521.84;;;-1.27;100.00
70411;BME280;57832;46.038;11.398;2022-12-07T17:31:08;96529.66;;;-1.21;100.00
70411;BME280;57832;46.038;11.398;2022-12-07T17:33:37;96530.06;;;-1.47;100.00
70411;BME280;57832;46.038;11.398;2022-12-07T17:36:14;96531.78;;;-1.77;100.00
70411;BME280;57832;46.038;11.398;2022-12-07T17:38:40;96544.19;;;-1.43;100.00
70411;BME280;57832;46.038;11.398;2022-12-07T17:41:10;96532.81;;;-1.63;100.00
70411;BME280;57832;46.038;11.398;2022-12-07T17:43:35;96536.72;;;-1.67;100.00
70411;BME280;57832;46.038;11.398;2022-12-07T17:46:07;96534.25;;;-1.46;100.00
70411;BME280;57832;46.038;11.398;2022-12-07T17:48:34;96534.06;;;-1.59;100.00
70411;BME280;57832;46.038;11.398;2022-12-07T17:50:59;96526.97;;;-1.57;100.00
70411;BME280;57832;46.038;11.398;2022-12-07T17:53:47;96536.53;;;-1.66;100.00
70411;BME280;57832;46.038;11.398;2022-12-07T17:56:15;96533.97;;;-1.66;100.00
70411;BME280;57832;46.038;11.398;2022-12-07T17:58:42;96540.91;;;-1.52;100.00
70411;BME280;57832;46.038;11.398;2022-12-07T18:01:08;96542.06;;;-1.39;100.00
70411;BME280;57832;46.038;11.398;2022-12-07T18:03:36;96545.19;;;-1.44;100.00
70411;BME280;57832;46.038;11.398;2022-12-07T18:06:02;96542.47;;;-1.65;100.00
70411;BME280;57832;46.038;11.398;2022-12-07T18:08:28;96544.16;;;-1.73;100.00
70411;BME280;57832;46.038;11.398;2022-12-07T18:10:57;96549.00;;;-1.78;100.00
70411;BME280;57832;46.038;11.398;2022-12-07T18:13:23;96541.41;;;-1.71;100.00
70411;BME280;57832;46.038;11.398;2022-12-07T18:16:00;96540.72;;;-1.65;100.00
70411;BME280;57832;46.038;11.398;2022-12-07T18:18:26;96534.38;;;-1.77;100.00
70411;BME280;57832;46.038;11.398;2022-12-07T18:20:51;96537.16;;;-1.64;100.00
70411;BME280;57832;46.038;11.398;2022-12-07T18:23:17;96538.84;;;-1.56;100.00
70411;BME280;57832;46.038;11.398;2022-12-07T18:25:46;96529.47;;;-1.64;100.00
70411;BME280;57832;46.038;11.398;2022-12-07T18:28:12;96525.78;;;-1.70;100.00
70411;BME280;57832;46.038;11.398;2022-12-07T18:30:38;96530.66;;;-1.75;100.00
70411;BME280;57832;46.038;11.398;2022-12-07T18:33:05;96532.03;;;-1.87;100.00
70411;BME280;57832;46.038;11.398;2022-12-07T18:35:30;96539.16;;;-1.89;100.00
70411;BME280;57832;46.038;11.398;2022-12-07T18:37:58;96534.97;;;-1.90;100.00
70411;BME280;57832;46.038;11.398;2022-12-07T18:40:24;96533.22;;;-1.75;100.00
70411;BME280;57832;46.038;11.398;2022-12-07T18:42:49;96537.66;;;-1.83;100.00
70411;BME280;57832;46.038;11.398;2022-12-07T18:45:14;96540.16;;;-1.75;100.00
70411;BME280;57832;46.038;11.398;2022-12-07T18:47:40;96535.25;;;-1.85;100.00
70411;BME280;57832;46.038;11.398;2022-12-07T18:50:06;96533.66;;;-2.09;100.00
70411;BME280;57832;46.038;11.398;2022-12-07T18:52:31;96538.28;;;-2.05;100.00
70411;BME280;57832;46.038;11.398;2022-12-07T18:54:57;96539.16;;;-1.89;100.00
70411;BME280;57832;46.038;11.398;2022-12-07T18:57:22;96538.53;;;-2.14;100.00
70411;BME280;57832;46.038;11.398;2022-12-07T18:59:48;96537.88;;;-2.16;100.00
70411;BME280;57832;46.038;11.398;2022-12-07T19:02:14;96536.97;;;-2.00;100.00
70411;BME280;57832;46.038;11.398;2022-12-07T19:04:39;96542.13;;;-2.24;100.00
70411;BME280;57832;46.038;11.398;2022-12-07T19:07:05;96536.94;;;-2.47;100.00
70411;BME280;57832;46.038;11.398;2022-12-07T19:09:30;96541.34;;;-2.32;100.00
70411;BME280;57832;46.038;11.398;2022-12-07T19:11:55;96544.66;;;-2.47;100.00
70411;BME280;57832;46.038;11.398;2022-12-07T19:14:32;96542.50;;;-2.35;100.00
70411;BME280;57832;46.038;11.398;2022-12-07T19:16:58;96552.78;;;-2.35;100.00
70411;BME280;57832;46.038;11.398;2022-12-07T19:19:30;96558.56;;;-2.33;100.00
70411;BME280;57832;46.038;11.398;2022-12-07T19:21:56;96555.00;;;-2.32;100.00
70411;BME280;57832;46.038;11.398;2022-12-07T19:24:22;96552.66;;;-2.42;100.00
70411;BME280;57832;46.038;11.398;2022-12-07T19:26:47;96554.06;;;-2.39;100.00
70411;BME280;57832;46.038;11.398;2022-12-07T19:29:12;96555.50;;;-2.37;100.00
70411;BME280;57832;46.038;11.398;2022-12-07T19:31:38;96559.81;;;-2.29;100.00
70411;BME280;57832;46.038;11.398;2022-12-07T19:34:07;96557.34;;;-2.22;100.00
70411;BME280;57832;46.038;11.398;2022-12-07T19:36:32;96565.25;;;-2.24;100.00
70411;BME280;57832;46.038;11.398;2022-12-07T19:38:58;96561.84;;;-2.24;100.00
70411;BME280;57832;46.038;11.398;2022-12-07T19:41:23;96566.31;;;-2.18;100.00
70411;BME280;57832;46.038;11.398;2022-12-07T19:46:26;96567.28;;;-2.19;100.00
70411;BME280;57832;46.038;11.398;2022-12-07T19:48:52;96567.41;;;-2.36;100.00
70411;BME280;57832;46.038;11.398;2022-12-07T19:51:17;96567.16;;;-2.26;100.00
70411;BME280;57832;46.038;11.398;2022-12-07T19:53:43;96569.00;;;-2.34;100.00
70411;BME280;57832;46.038;11.398;2022-12-07T19:56:12;96567.63;;;-2.54;100.00
70411;BME280;57832;46.038;11.398;2022-12-07T19:58:38;96565.84;;;-2.45;100.00
70411;BME280;57832;46.038;11.398;2022-12-07T20:01:03;96560.81;;;-2.70;100.00
70411;BME280;57832;46.038;11.398;2022-12-07T20:03:29;96562.41;;;-2.69;100.00
70411;BME280;57832;46.038;11.398;2022-12-07T20:05:54;96558.41;;;-2.71;100.00
70411;BME280;57832;46.038;11.398;2022-12-07T20:08:23;96572.19;;;-2.64;100.00
70411;BME280;57832;46.038;11.398;2022-12-07T20:10:48;96576.69;;;-2.66;100.00
70411;BME280;57832;46.038;11.398;2022-12-07T20:13:15;96570.13;;;-2.69;100.00
70411;BME280;57832;46.038;11.398;2022-12-07T20:15:53;96576.81;;;-2.59;100.00
70411;BME280;57832;46.038;11.398;2022-12-07T20:18:19;96576.00;;;-2.52;100.00
70411;BME280;57832;46.038;11.398;2022-12-07T20:20:53;96572.22;;;-2.41;100.00
70411;BME280;57832;46.038;11.398;2022-12-07T20:23:20;96580.03;;;-2.65;100.00
70411;BME280;57832;46.038;11.398;2022-12-07T20:25:46;96578.47;;;-2.75;100.00
70411;BME280;57832;46.038;11.398;2022-12-07T20:28:11;96577.72;;;-2.83;100.00
70411;BME280;57832;46.038;11.398;2022-12-07T20:30:37;96581.38;;;-2.78;100.00
70411;BME280;57832;46.038;11.398;2022-12-07T20:33:02;96583.03;;;-2.85;100.00
70411;BME280;57832;46.038;11.398;2022-12-07T20:35:28;96580.59;;;-2.87;100.00
70411;BME280;57832;46.038;11.398;2022-12-07T20:37:53;96583.59;;;-2.66;100.00
70411;BME280;57832;46.038;11.398;2022-12-07T20:40:19;96585.88;;;-2.72;100.00
70411;BME280;57832;46.038;11.398;2022-12-07T20:42:44;96590.44;;;-2.50;100.00
70411;BME280;57832;46.038;11.398;2022-12-07T20:45:09;96587.91;;;-2.67;100.00
70411;BME280;57832;46.038;11.398;2022-12-07T20:47:36;96586.28;;;-2.99;100.00
70411;BME280;57832;46.038;11.398;2022-12-07T20:50:01;96580.31;;;-3.00;100.00
70411;BME280;57832;46.038;11.398;2022-12-07T20:52:27;96582.84;;;-2.83;100.00
70411;BME280;57832;46.038;11.398;2022-12-07T20:54:53;96573.75;;;-3.03;100.00
70411;BME280;57832;46.038;11.398;2022-12-07T20:57:19;96573.72;;;-2.86;100.00
70411;BME280;57832;46.038;11.398;2022-12-07T20:59:44;96575.97;;;-2.91;100.00
70411;BME280;57832;46.038;11.398;2022-12-07T21:02:10;96566.66;;;-2.92;100.00
70411;BME280;57832;46.038;11.398;2022-12-07T21:04:36;96576.63;;;-2.97;100.00
70411;BME280;57832;46.038;11.398;2022-12-07T21:07:01;96574.72;;;-2.95;100.00
70411;BME280;57832;46.038;11.398;2022-12-07T21:09:27;96570.53;;;-2.96;100.00
70411;BME280;57832;46.038;11.398;2022-12-07T21:11:52;96571.53;;;-3.06;100.00
70411;BME280;57832;46.038;11.398;2022-12-07T21:14:18;96566.78;;;-2.77;100.00
70411;BME280;57832;46.038;11.398;2022-12-07T21:16:44;96566.88;;;-3.02;100.00
70411;BME280;57832;46.038;11.398;2022-12-07T21:19:09;96563.34;;;-3.09;100.00
70411;BME280;57832;46.038;11.398;2022-12-07T21:21:34;96559.66;;;-2.98;100.00
70411;BME280;57832;46.038;11.398;2022-12-07T21:24:00;96569.09;;;-2.99;100.00
70411;BME280;57832;46.038;11.398;2022-12-07T21:26:26;96567.34;;;-2.98;100.00
70411;BME280;57832;46.038;11.398;2022-12-07T21:28:52;96567.66;;;-3.02;100.00
70411;BME280;57832;46.038;11.398;2022-12-07T21:31:17;96580.03;;;-3.13;100.00
70411;BME280;57832;46.038;11.398;2022-12-07T21:33:43;96568.78;;;-2.96;100.00
70411;BME280;57832;46.038;11.398;2022-12-07T21:36:09;96567.63;;;-2.85;100.00
70411;BME280;57832;46.038;11.398;2022-12-07T21:38:35;96570.63;;;-3.38;100.00
70411;BME280;57832;46.038;11.398;2022-12-07T21:41:11;96568.72;;;-3.36;100.00
70411;BME280;57832;46.038;11.398;2022-12-07T21:43:37;96566.78;;;-3.33;100.00
70411;BME280;57832;46.038;11.398;2022-12-07T21:46:02;96575.75;;;-3.38;100.00
70411;BME280;57832;46.038;11.398;2022-12-07T21:48:27;96569.69;;;-3.45;100.00
70411;BME280;57832;46.038;11.398;2022-12-07T21:50:53;96571.75;;;-3.40;100.00
70411;BME280;57832;46.038;11.398;2022-12-07T21:53:18;96573.47;;;-3.16;100.00
70411;BME280;57832;46.038;11.398;2022-12-07T21:55:44;96575.09;;;-3.23;100.00
70411;BME280;57832;46.038;11.398;2022-12-07T21:58:09;96578.81;;;-3.59;100.00
70411;BME280;57832;46.038;11.398;2022-12-07T22:00:35;96574.50;;;-3.50;100.00
70411;BME280;57832;46.038;11.398;2022-12-07T22:03:01;96581.41;;;-3.50;100.00
70411;BME280;57832;46.038;11.398;2022-12-07T22:05:26;96589.88;;;-3.50;100.00
70411;BME280;57832;46.038;11.398;2022-12-07T22:07:51;96587.78;;;-3.30;100.00
70411;BME280;57832;46.038;11.398;2022-12-07T22:10:17;96585.69;;;-3.26;100.00
70411;BME280;57832;46.038;11.398;2022-12-07T22:12:58;96582.38;;;-3.51;100.00
70411;BME280;57832;46.038;11.398;2022-12-07T22:15:24;96589.09;;;-3.42;100.00
70411;BME280;57832;46.038;11.398;2022-12-07T22:17:52;96587.66;;;-3.53;100.00
70411;BME280;57832;46.038;11.398;2022-12-07T22:20:21;96587.81;;;-3.46;100.00
70411;BME280;57832;46.038;11.398;2022-12-07T22:22:47;96582.53;;;-3.53;100.00
70411;BME280;57832;46.038;11.398;2022-12-07T22:25:13;96578.81;;;-3.59;100.00
70411;BME280;57832;46.038;11.398;2022-12-07T22:27:38;96577.22;;;-3.43;100.00
70411;BME280;57832;46.038;11.398;2022-12-07T22:30:05;96579.13;;;-3.29;100.00
70411;BME280;57832;46.038;11.398;2022-12-07T22:32:31;96570.16;;;-3.41;100.00
70411;BME280;57832;46.038;11.398;2022-12-07T22:34:56;96578.84;;;-3.50;100.00
70411;BME280;57832;46.038;11.398;2022-12-07T22:37:22;96575.63;;;-3.53;100.00
70411;BME280;57832;46.038;11.398;2022-12-07T22:39:47;96572.09;;;-3.51;100.00
70411;BME280;57832;46.038;11.398;2022-12-07T22:42:12;96571.75;;;-3.40;100.00
70411;BME280;57832;46.038;11.398;2022-12-07T22:44:38;96572.91;;;-3.51;100.00
70411;BME280;57832;46.038;11.398;2022-12-07T22:47:05;96576.09;;;-3.41;100.00
70411;BME280;57832;46.038;11.398;2022-12-07T22:49:30;96580.94;;;-3.62;100.00
70411;BME280;57832;46.038;11.398;2022-12-07T22:51:55;96576.59;;;-3.70;100.00
70411;BME280;57832;46.038;11.398;2022-12-07T22:54:21;96581.56;;;-3.60;100.00
70411;BME280;57832;46.038;11.398;2022-12-07T22:56:46;96581.56;;;-3.60;100.00
70411;BME280;57832;46.038;11.398;2022-12-07T22:59:12;96578.34;;;-3.46;100.00
70411;BME280;57832;46.038;11.398;2022-12-07T23:01:38;96577.69;;;-3.40;100.00
70411;BME280;57832;46.038;11.398;2022-12-07T23:04:03;96572.72;;;-3.49;100.00
70411;BME280;57832;46.038;11.398;2022-12-07T23:06:30;96583.47;;;-3.54;100.00
70411;BME280;57832;46.038;11.398;2022-12-07T23:08:57;96572.75;;;-3.58;100.00
70411;BME280;57832;46.038;11.398;2022-12-07T23:11:23;96576.09;;;-3.65;100.00
70411;BME280;57832;46.038;11.398;2022-12-07T23:14:12;96572.56;;;-3.56;100.00
70411;BME280;57832;46.038;11.398;2022-12-07T23:16:38;96571.78;;;-3.57;100.00
70411;BME280;57832;46.038;11.398;2022-12-07T23:19:03;96575.13;;;-3.56;100.00
70411;BME280;57832;46.038;11.398;2022-12-07T23:21:29;96571.63;;;-3.63;100.00
70411;BME280;57832;46.038;11.398;2022-12-07T23:23:54;96567.81;;;-3.76;100.00
70411;BME280;57832;46.038;11.398;2022-12-07T23:26:19;96575.00;;;-3.46;100.00
70411;BME280;57832;46.038;11.398;2022-12-07T23:28:45;96575.78;;;-3.79;100.00
70411;BME280;57832;46.038;11.398;2022-12-07T23:31:14;96578.06;;;-3.76;100.00
70411;BME280;57832;46.038;11.398;2022-12-07T23:33:40;96585.88;;;-3.77;100.00
70411;BME280;57832;46.038;11.398;2022-12-07T23:36:06;96583.63;;;-3.64;100.00
70411;BME280;57832;46.038;11.398;2022-12-07T23:38:31;96574.81;;;-3.70;100.00
70411;BME280;57832;46.038;11.398;2022-12-07T23:40:57;96581.91;;;-3.72;100.00
70411;BME280;57832;46.038;11.398;2022-12-07T23:43:22;96577.72;;;-3.89;100.00
70411;BME280;57832;46.038;11.398;2022-12-07T23:45:47;96587.94;;;-4.14;100.00
70411;BME280;57832;46.038;11.398;2022-12-07T23:48:13;96582.69;;;-3.96;100.00
70411;BME280;57832;46.038;11.398;2022-12-07T23:50:38;96579.31;;;-3.96;100.00
70411;BME280;57832;46.038;11.398;2022-12-07T23:53:04;96573.56;;;-3.98;100.00
70411;BME280;57832;46.038;11.398;2022-12-07T23:55:29;96572.28;;;-3.86;100.00
70411;BME280;57832;46.038;11.398;2022-12-07T23:57:54;96578.19;;;-3.77;100.00
